0Q6 weather

CLOSED Shingletown Airport
Shingletown, California, United States

Public forecast

Using degrees Fahrenheit for public forecast. Weather courtesy of forecast.io.

Closest aviation weather report (METAR) to Shingletown Airport

Closest report is Redding Municipal Airport, 21.7 nm (40.2 km) W. Retrieved 2019/10/19 17:53 UTC (53 minutes ago):

KRDD 191753Z AUTO 00000KT 10SM FEW018 SCT042 14/09 A3007 RMK AO2 SLP179 60001 T01390094 10150 20122 51023

Closest aviation forecast (TAF) to Shingletown Airport

Closest forecast is Redding Municipal Airport, 21.7 nm (40.2 km) W. Retrieved 2019/10/19 18:22 UTC (24 minutes ago):

TAF KRDD 191720Z 1918/2018 19005KT P6SM VCSH BKN050 OVC250 FM192000 18004KT P6SM SCT050 OVC250 FM200000 VRB04KT P6SM BKN250